createdAt,value
2023-05-20T00:02:35.398Z,86.66
2023-05-20T00:12:38.953Z,86.55
2023-05-20T00:22:42.561Z,86.56
2023-05-20T00:32:46.443Z,86.55
2023-05-20T00:42:50.363Z,86.51
2023-05-20T00:52:54.824Z,86.56
2023-05-20T01:02:58.542Z,86.47
2023-05-20T01:13:04.808Z,86.63
2023-05-20T01:23:08.792Z,86.66
2023-05-20T01:33:14.680Z,87.08
2023-05-20T01:43:18.977Z,86.96
2023-05-20T01:53:22.540Z,87.01
2023-05-20T02:03:35.545Z,87.02
2023-05-20T02:13:39.387Z,87.02
2023-05-20T02:23:42.973Z,87.12
2023-05-20T02:33:46.519Z,87.15
2023-05-20T02:43:50.117Z,87.05
2023-05-20T02:53:54.378Z,87.07
2023-05-20T03:03:58.437Z,87.12
2023-05-20T03:14:03.370Z,87.27
2023-05-20T03:24:07.434Z,87.35
2023-05-20T03:34:10.948Z,87.20
2023-05-20T03:44:14.592Z,87.34
2023-05-20T03:54:18.583Z,87.38
2023-05-20T04:04:25.837Z,87.47
2023-05-20T04:14:29.394Z,87.61
2023-05-20T04:24:32.927Z,87.70
2023-05-20T04:34:36.794Z,87.82
2023-05-20T04:44:42.306Z,87.81
2023-05-20T04:55:05.977Z,87.66
2023-05-20T05:05:09.621Z,87.69
2023-05-20T05:15:13.540Z,87.86
2023-05-20T05:25:17.467Z,88.06
2023-05-20T05:35:24.774Z,88.17
2023-05-20T05:45:31.954Z,88.34
2023-05-20T05:55:36.266Z,88.47
2023-05-20T06:05:40.111Z,88.49
2023-05-20T06:15:44.028Z,88.55
2023-05-20T06:25:48.444Z,88.58
2023-05-20T06:35:52.004Z,88.60
2023-05-20T06:45:55.714Z,88.61
2023-05-20T06:55:59.510Z,88.66
2023-05-20T07:06:02.796Z,88.31
2023-05-20T07:16:10.483Z,87.96
2023-05-20T07:26:15.051Z,87.60
2023-05-20T07:36:18.761Z,87.34
2023-05-20T07:46:22.065Z,87.17
2023-05-20T07:56:29.238Z,86.82
2023-05-20T08:06:33.181Z,86.29
2023-05-20T08:16:36.800Z,85.65
2023-05-20T08:26:43.859Z,85.17
2023-05-20T08:36:47.649Z,84.19
2023-05-20T08:46:51.912Z,83.55
2023-05-20T08:56:56.593Z,83.13
2023-05-20T09:07:03.311Z,82.48
2023-05-20T09:17:12.310Z,81.61
2023-05-20T09:27:16.594Z,80.88
2023-05-20T09:37:22.188Z,80.79
2023-05-20T09:47:27.230Z,80.39
2023-05-20T09:57:31.840Z,80.36
2023-05-20T10:08:08.497Z,79.27
2023-05-20T10:18:19.502Z,78.57
2023-05-20T10:28:28.927Z,77.91
2023-05-20T10:38:32.616Z,77.26
2023-05-20T10:48:36.497Z,76.21
2023-05-20T10:58:44.335Z,75.57
2023-05-20T11:08:47.896Z,74.49
2023-05-20T11:18:51.600Z,73.19
2023-05-20T11:28:56.680Z,72.02
2023-05-20T11:39:05.113Z,71.34
2023-05-20T11:49:09.456Z,72.30
2023-05-20T11:59:15.441Z,71.84
2023-05-20T12:09:23.089Z,71.73
2023-05-20T12:19:28.135Z,70.33
2023-05-20T12:29:32.127Z,70.23
2023-05-20T12:39:36.219Z,69.76
2023-05-20T12:49:40.056Z,69.17
2023-05-20T12:59:43.252Z,69.08
2023-05-20T13:09:46.952Z,68.97
2023-05-20T13:19:50.851Z,67.63
2023-05-20T13:29:54.502Z,67.10
2023-05-20T13:39:58.590Z,66.71
2023-05-20T13:50:07.771Z,66.77
2023-05-20T14:00:13.375Z,65.25
2023-05-20T14:10:17.312Z,64.56
2023-05-20T14:20:24.400Z,64.15
2023-05-20T14:30:32.028Z,63.28
2023-05-20T14:40:36.083Z,63.03
2023-05-20T14:50:40.221Z,62.26
2023-05-20T15:00:43.397Z,61.70
2023-05-20T15:10:49.978Z,60.42
2023-05-20T15:32:55.649Z,57.59
2023-05-20T15:42:59.884Z,57.79
2023-05-20T15:53:07.168Z,57.51
2023-05-20T16:03:10.907Z,57.68
2023-05-20T16:13:14.977Z,58.11
2023-05-20T16:23:22.131Z,58.78
2023-05-20T16:33:31.510Z,58.64
2023-05-20T16:43:35.162Z,58.97
2023-05-20T16:53:39.113Z,59.35
2023-05-20T17:03:42.776Z,60.20
2023-05-20T17:13:46.587Z,60.76
2023-05-20T17:23:50.639Z,61.57
2023-05-20T17:33:54.623Z,62.20
2023-05-20T17:43:58.528Z,62.64
2023-05-20T17:54:05.896Z,63.24
2023-05-20T18:04:13.485Z,63.99
2023-05-20T18:24:20.573Z,65.34
2023-05-20T18:34:28.328Z,65.90
2023-05-20T18:54:36.288Z,67.09
2023-05-20T19:04:40.261Z,67.70
2023-05-20T19:14:44.508Z,68.36
2023-05-20T19:24:48.216Z,68.81
2023-05-20T19:34:52.200Z,68.52
2023-05-20T19:44:55.950Z,68.49
2023-05-20T19:55:00.547Z,68.55
2023-05-20T20:05:06.787Z,68.54
2023-05-20T20:15:12.458Z,68.22
2023-05-20T20:25:17.197Z,68.08
2023-05-20T20:35:21.222Z,68.31
2023-05-20T20:45:24.890Z,68.23
2023-05-20T20:55:28.878Z,68.27
2023-05-20T21:05:35.158Z,68.66
2023-05-20T21:15:39.093Z,69.01
2023-05-20T21:25:42.675Z,69.23
2023-05-20T21:35:46.359Z,69.37
2023-05-20T21:45:50.369Z,69.56
2023-05-20T21:55:54.476Z,69.96
2023-05-20T22:05:57.915Z,70.09
2023-05-20T22:26:09.367Z,70.56
2023-05-20T22:36:13.403Z,71.01
2023-05-20T22:46:17.647Z,71.31
2023-05-20T22:56:21.779Z,71.69
2023-05-20T23:06:26.396Z,71.82
2023-05-20T23:16:31.142Z,72.09
2023-05-20T23:26:37.100Z,72.43
2023-05-20T23:36:45.216Z,72.69
2023-05-20T23:47:03.587Z,72.50
2023-05-20T23:57:07.982Z,72.77
